createdAt,value
2019-02-27T00:02:31.539Z,82.60
2019-02-27T00:05:13.831Z,82.60
2019-02-27T00:08:02.915Z,82.10
2019-02-27T00:10:39.299Z,81.90
2019-02-27T00:13:15.649Z,81.90
2019-02-27T00:15:51.505Z,82.00
2019-02-27T00:18:26.868Z,82.10
2019-02-27T00:21:10.999Z,82.40
2019-02-27T00:23:56.696Z,82.70
2019-02-27T00:26:39.546Z,82.60
2019-02-27T00:29:14.358Z,82.00
2019-02-27T00:31:49.707Z,82.10
2019-02-27T00:34:32.999Z,82.30
2019-02-27T00:37:08.968Z,82.70
2019-02-27T00:39:44.695Z,83.00
2019-02-27T00:42:23.017Z,83.50
2019-02-27T00:44:58.352Z,83.40
2019-02-27T00:47:40.102Z,83.20
2019-02-27T00:50:23.934Z,83.00
2019-02-27T00:52:59.727Z,82.80
2019-02-27T00:55:41.432Z,82.60
2019-02-27T00:58:26.838Z,83.00
2019-02-27T01:01:01.352Z,83.40
2019-02-27T01:03:43.776Z,83.90
2019-02-27T01:06:19.139Z,84.10
2019-02-27T01:09:01.034Z,84.40
2019-02-27T01:11:36.582Z,85.00
2019-02-27T01:14:18.438Z,85.30
2019-02-27T01:16:53.720Z,85.50
2019-02-27T01:19:29.790Z,85.90
2019-02-27T01:22:05.884Z,86.10
2019-02-27T01:24:41.733Z,86.50
2019-02-27T01:27:23.666Z,86.80
2019-02-27T01:30:06.219Z,87.00
2019-02-27T01:32:47.963Z,86.90
2019-02-27T01:35:23.076Z,86.80
2019-02-27T01:37:59.240Z,86.80
2019-02-27T01:40:35.031Z,86.80
2019-02-27T01:43:10.211Z,87.10
2019-02-27T01:45:45.498Z,86.90
2019-02-27T01:48:21.384Z,86.90
2019-02-27T01:51:04.122Z,87.80
2019-02-27T01:53:40.690Z,87.90
2019-02-27T01:56:23.017Z,88.30
2019-02-27T01:59:04.683Z,88.30
2019-02-27T02:01:33.845Z,88.60
2019-02-27T02:04:09.830Z,88.80
2019-02-27T02:06:45.645Z,89.00
2019-02-27T02:09:41.115Z,89.30
2019-02-27T02:12:24.481Z,89.10
2019-02-27T02:15:17.090Z,89.00
2019-02-27T02:18:16.345Z,89.30
2019-02-27T02:21:06.247Z,89.00
2019-02-27T02:24:22.588Z,88.90
2019-02-27T02:27:08.275Z,88.90
2019-02-27T02:29:53.738Z,88.80
2019-02-27T02:32:52.551Z,88.80
2019-02-27T02:35:42.489Z,88.60
2019-02-27T02:38:37.761Z,88.30
2019-02-27T02:41:38.593Z,87.90
2019-02-27T02:44:40.103Z,88.00
2019-02-27T02:47:25.041Z,88.00
2019-02-27T02:50:27.044Z,87.60
2019-02-27T02:53:24.841Z,88.30
2019-02-27T02:56:23.716Z,87.30
2019-02-27T02:59:46.430Z,87.30
2019-02-27T03:02:51.039Z,87.40
2019-02-27T03:06:10.164Z,87.30
2019-02-27T03:09:22.153Z,86.90
2019-02-27T03:12:05.698Z,86.40
2019-02-27T03:15:05.102Z,86.50
2019-02-27T03:18:06.575Z,86.50
2019-02-27T03:21:27.519Z,86.40
2019-02-27T03:24:32.325Z,86.40
2019-02-27T03:27:30.885Z,85.90
2019-02-27T03:30:47.833Z,85.40
2019-02-27T03:34:05.878Z,85.00
2019-02-27T03:36:52.996Z,84.50
2019-02-27T03:40:21.132Z,84.30
2019-02-27T03:43:17.002Z,84.10
2019-02-27T03:46:30.186Z,84.00
2019-02-27T03:49:44.236Z,84.00
2019-02-27T03:52:47.042Z,84.00
2019-02-27T03:55:44.146Z,84.00
2019-02-27T03:59:06.233Z,83.80
2019-02-27T04:02:09.509Z,83.90
2019-02-27T04:05:07.132Z,83.70
2019-02-27T04:07:57.046Z,83.40
2019-02-27T04:10:39.386Z,83.70
2019-02-27T04:13:26.835Z,84.20
2019-02-27T04:16:05.481Z,84.40
2019-02-27T04:18:46.625Z,84.50
2019-02-27T04:21:25.378Z,84.60
2019-02-27T04:23:59.649Z,84.50
2019-02-27T04:26:41.490Z,84.20
2019-02-27T04:29:19.428Z,84.40
2019-02-27T04:31:55.375Z,84.10
2019-02-27T04:34:37.480Z,84.00
2019-02-27T04:37:13.113Z,84.10
2019-02-27T04:39:54.975Z,84.20
2019-02-27T04:42:31.156Z,84.30
2019-02-27T04:45:07.034Z,84.10
2019-02-27T04:47:42.525Z,84.10
2019-02-27T04:50:24.740Z,84.00
2019-02-27T04:53:00.928Z,83.90
2019-02-27T04:55:42.914Z,84.00
2019-02-27T04:58:18.551Z,84.00
2019-02-27T05:01:07.189Z,84.00
2019-02-27T05:03:42.747Z,84.00
2019-02-27T05:06:25.289Z,84.20
2019-02-27T05:09:01.113Z,84.30
2019-02-27T05:11:47.590Z,84.50
2019-02-27T05:14:28.055Z,84.40
2019-02-27T05:17:10.846Z,84.80
2019-02-27T05:19:52.919Z,85.00
2019-02-27T05:22:28.931Z,85.10
2019-02-27T05:25:14.554Z,85.10
2019-02-27T05:27:50.169Z,85.10
2019-02-27T05:30:32.197Z,85.40
2019-02-27T05:33:02.065Z,85.50
2019-02-27T05:35:38.677Z,85.80
2019-02-27T05:38:07.836Z,85.90
2019-02-27T05:40:43.544Z,86.00
2019-02-27T05:43:13.902Z,85.90
2019-02-27T05:45:49.893Z,86.20
2019-02-27T05:48:25.464Z,86.40
2019-02-27T05:51:00.888Z,87.00
2019-02-27T05:53:30.067Z,86.90
2019-02-27T05:56:05.584Z,86.90
2019-02-27T05:58:34.750Z,87.10
2019-02-27T06:01:16.711Z,87.20
2019-02-27T06:03:45.896Z,87.00
2019-02-27T06:06:21.745Z,86.90
2019-02-27T06:08:57.665Z,87.00
2019-02-27T06:11:27.130Z,87.20
2019-02-27T06:13:57.714Z,87.20
2019-02-27T06:16:37.020Z,87.50
2019-02-27T06:19:05.177Z,87.80
2019-02-27T06:21:34.354Z,88.00
2019-02-27T06:24:12.436Z,87.80
2019-02-27T06:26:54.150Z,88.00
2019-02-27T06:29:35.892Z,87.90
2019-02-27T06:32:12.353Z,87.80
2019-02-27T06:34:48.337Z,87.60
2019-02-27T06:37:24.533Z,87.60
2019-02-27T06:40:08.023Z,87.40
2019-02-27T06:42:57.076Z,87.10
2019-02-27T06:45:38.722Z,86.90
2019-02-27T06:48:14.372Z,86.90
2019-02-27T06:50:58.324Z,86.70
2019-02-27T06:53:27.751Z,86.70
2019-02-27T06:55:56.947Z,86.40
2019-02-27T06:58:32.724Z,85.90
2019-02-27T07:01:09.694Z,85.90
2019-02-27T07:03:45.392Z,85.90
2019-02-27T07:06:26.873Z,85.60
2019-02-27T07:09:02.789Z,84.90
2019-02-27T07:11:38.497Z,84.40
2019-02-27T07:14:14.187Z,84.10
2019-02-27T07:16:49.541Z,83.70
2019-02-27T07:19:25.222Z,83.70
2019-02-27T07:22:09.329Z,83.40
2019-02-27T07:24:44.910Z,83.30
2019-02-27T07:27:20.549Z,83.00
2019-02-27T07:30:04.855Z,82.70
2019-02-27T07:32:46.565Z,82.10
2019-02-27T07:35:29.924Z,82.30
2019-02-27T07:38:21.396Z,81.90
2019-02-27T07:40:55.879Z,81.50
2019-02-27T07:43:38.062Z,81.30
2019-02-27T07:46:22.327Z,81.20
2019-02-27T07:48:57.784Z,80.70
2019-02-27T07:51:40.556Z,80.70
2019-02-27T07:54:22.329Z,80.30
2019-02-27T07:56:58.315Z,80.60
2019-02-27T07:59:37.941Z,80.20
2019-02-27T08:02:25.343Z,79.90
2019-02-27T08:05:00.744Z,79.50
2019-02-27T08:07:29.922Z,79.50
2019-02-27T08:10:00.744Z,79.60
2019-02-27T08:12:36.322Z,79.50
2019-02-27T08:15:15.195Z,79.30
2019-02-27T08:17:51.469Z,79.00
2019-02-27T08:20:26.967Z,79.00
2019-02-27T08:23:09.390Z,78.60
2019-02-27T08:25:51.981Z,78.60
2019-02-27T08:28:27.906Z,78.10
2019-02-27T08:31:09.964Z,78.40
2019-02-27T08:33:39.253Z,77.70
2019-02-27T08:36:21.582Z,77.10
2019-02-27T08:39:03.864Z,77.50
2019-02-27T08:41:46.155Z,77.30
2019-02-27T08:44:15.340Z,77.30
2019-02-27T08:46:50.574Z,77.40
2019-02-27T08:49:26.568Z,77.30
2019-02-27T08:52:02.670Z,77.00
2019-02-27T08:54:33.042Z,76.70
2019-02-27T08:57:08.603Z,76.50
2019-02-27T08:59:39.819Z,76.10
2019-02-27T09:02:24.154Z,75.70
2019-02-27T09:05:05.520Z,75.60
2019-02-27T09:07:36.455Z,75.90
2019-02-27T09:10:17.287Z,75.40
2019-02-27T09:12:53.219Z,75.20
2019-02-27T09:15:22.392Z,75.50
2019-02-27T09:17:59.133Z,75.20
2019-02-27T09:20:34.951Z,74.70
2019-02-27T09:23:04.131Z,74.70
2019-02-27T09:25:42.214Z,74.90
2019-02-27T09:28:11.146Z,74.90
2019-02-27T09:30:40.333Z,75.30
2019-02-27T09:33:17.066Z,75.40
2019-02-27T09:35:53.507Z,75.20
2019-02-27T09:38:35.356Z,75.30
2019-02-27T09:41:18.098Z,74.90
2019-02-27T09:43:54.009Z,74.30
2019-02-27T09:46:35.980Z,73.70
2019-02-27T09:49:07.079Z,74.30
2019-02-27T09:51:49.665Z,74.20
2019-02-27T09:54:24.975Z,75.30
2019-02-27T09:57:07.070Z,75.30
2019-02-27T09:59:42.435Z,75.40
2019-02-27T10:02:18.464Z,75.30
2019-02-27T10:05:14.823Z,75.60
2019-02-27T10:07:57.575Z,75.50
2019-02-27T10:10:33.824Z,75.60
2019-02-27T10:13:09.807Z,75.40
2019-02-27T10:15:52.370Z,74.90
2019-02-27T10:18:22.214Z,75.10
2019-02-27T10:21:04.409Z,75.10
2019-02-27T10:23:40.620Z,75.30
2019-02-27T10:26:22.726Z,75.90
2019-02-27T10:28:58.807Z,75.90
2019-02-27T10:31:41.357Z,75.50
2019-02-27T10:34:18.286Z,74.80
2019-02-27T10:37:00.114Z,74.50
2019-02-27T10:39:42.967Z,74.10
2019-02-27T10:42:18.663Z,74.00
2019-02-27T10:45:01.206Z,74.30
2019-02-27T10:47:39.801Z,74.50
2019-02-27T10:50:26.204Z,74.00
2019-02-27T10:53:08.251Z,73.80
2019-02-27T10:55:46.398Z,73.90
2019-02-27T10:58:20.507Z,73.00
2019-02-27T11:00:58.081Z,72.90
2019-02-27T11:03:34.167Z,73.20
2019-02-27T11:06:16.869Z,72.10
2019-02-27T11:08:52.987Z,71.40
2019-02-27T11:11:35.019Z,71.20
2019-02-27T11:14:16.834Z,70.80
2019-02-27T11:16:52.077Z,71.00
2019-02-27T11:19:28.189Z,71.60
2019-02-27T11:21:58.415Z,70.40
2019-02-27T11:24:41.510Z,70.20
2019-02-27T11:27:16.964Z,69.80
2019-02-27T11:29:52.714Z,69.50
2019-02-27T11:32:34.632Z,69.20
2019-02-27T11:35:03.814Z,69.30
2019-02-27T11:37:32.998Z,68.50
2019-02-27T11:40:08.828Z,69.10
2019-02-27T11:42:44.780Z,69.00
2019-02-27T11:45:24.977Z,68.80
2019-02-27T11:48:06.929Z,68.00
2019-02-27T11:50:56.443Z,67.10
2019-02-27T11:53:35.683Z,67.70
2019-02-27T11:56:09.173Z,66.20
2019-02-27T11:58:51.097Z,65.50
2019-02-27T12:01:26.889Z,64.00
2019-02-27T12:04:02.325Z,63.70
2019-02-27T12:06:41.365Z,63.10
2019-02-27T12:09:21.614Z,61.60
2019-02-27T12:11:56.894Z,61.70
2019-02-27T12:14:39.114Z,61.00
2019-02-27T12:17:15.336Z,60.00
2019-02-27T12:19:57.634Z,59.10
2019-02-27T12:22:26.826Z,59.60
2019-02-27T12:25:02.324Z,59.50
2019-02-27T12:27:49.147Z,58.20
2019-02-27T12:30:26.281Z,57.50
2019-02-27T12:33:01.612Z,57.40
2019-02-27T12:35:44.943Z,58.00
2019-02-27T12:38:19.591Z,56.40
2019-02-27T12:40:58.215Z,55.40
2019-02-27T12:43:39.765Z,54.90
2019-02-27T12:46:15.091Z,54.80
2019-02-27T12:48:50.472Z,53.60
2019-02-27T12:51:26.551Z,54.00
2019-02-27T12:54:08.871Z,54.00
2019-02-27T12:56:44.553Z,54.10
2019-02-27T12:59:26.182Z,53.80
2019-02-27T13:02:08.055Z,53.40
2019-02-27T13:04:39.370Z,53.80
2019-02-27T13:07:14.664Z,53.70
2019-02-27T13:09:58.731Z,53.60
2019-02-27T13:12:34.911Z,53.70
2019-02-27T13:15:13.337Z,52.90
2019-02-27T13:17:49.356Z,52.00
2019-02-27T13:20:34.373Z,52.40
2019-02-27T13:23:05.230Z,51.80
2019-02-27T13:25:40.861Z,51.10
2019-02-27T13:28:16.698Z,50.80
2019-02-27T13:30:58.436Z,50.10
2019-02-27T13:33:35.378Z,50.00
2019-02-27T13:36:18.038Z,49.20
2019-02-27T13:38:53.722Z,48.60
2019-02-27T13:41:35.961Z,49.40
2019-02-27T13:44:11.273Z,49.00
2019-02-27T13:46:47.192Z,48.90
2019-02-27T13:49:28.922Z,47.30
2019-02-27T13:51:58.109Z,46.40
2019-02-27T13:54:39.975Z,45.20
2019-02-27T13:57:15.649Z,45.10
2019-02-27T13:59:51.451Z,44.00
2019-02-27T14:02:20.675Z,44.30
2019-02-27T14:05:02.542Z,43.30
2019-02-27T14:07:37.799Z,42.70
2019-02-27T14:10:30.654Z,42.80
2019-02-27T14:12:59.835Z,43.20
2019-02-27T14:15:42.422Z,43.60
2019-02-27T14:18:18.231Z,43.90
2019-02-27T14:20:54.200Z,42.40
2019-02-27T14:23:36.984Z,42.80
2019-02-27T14:26:12.591Z,43.70
2019-02-27T14:28:48.196Z,42.20
2019-02-27T14:31:30.667Z,43.30
2019-02-27T14:34:06.431Z,42.90
2019-02-27T14:36:49.099Z,43.10
2019-02-27T14:39:18.317Z,43.40
2019-02-27T14:42:00.697Z,42.60
2019-02-27T14:44:36.917Z,43.10
2019-02-27T14:47:13.157Z,42.70
2019-02-27T14:49:54.644Z,43.10
2019-02-27T14:52:23.847Z,42.50
2019-02-27T14:55:06.553Z,43.30
2019-02-27T14:57:51.035Z,43.20
2019-02-27T15:00:42.426Z,43.70
2019-02-27T15:03:11.624Z,44.20
2019-02-27T15:05:47.504Z,44.10
2019-02-27T15:08:25.195Z,43.70
2019-02-27T15:11:00.490Z,43.60
2019-02-27T15:13:42.055Z,44.10
2019-02-27T15:16:17.875Z,43.60
2019-02-27T15:18:47.074Z,43.80
2019-02-27T15:21:28.909Z,44.00
2019-02-27T15:24:01.354Z,44.40
2019-02-27T15:26:35.105Z,44.30
2019-02-27T15:29:05.691Z,44.10
2019-02-27T15:31:35.216Z,44.20
2019-02-27T15:34:12.287Z,43.80
2019-02-27T15:36:42.023Z,44.40
2019-02-27T15:39:21.100Z,44.40
2019-02-27T15:41:48.763Z,44.40
2019-02-27T15:44:24.110Z,44.90
2019-02-27T15:46:59.445Z,44.90
2019-02-27T15:49:35.572Z,44.90
2019-02-27T15:52:06.855Z,45.00
2019-02-27T15:54:42.602Z,45.30
2019-02-27T15:57:11.826Z,45.10
2019-02-27T15:59:53.750Z,45.00
2019-02-27T16:02:29.991Z,45.50
2019-02-27T16:05:06.271Z,45.70
2019-02-27T16:07:49.446Z,45.90
2019-02-27T16:10:34.087Z,46.20
2019-02-27T16:13:16.601Z,46.40
2019-02-27T16:15:53.472Z,45.90
2019-02-27T16:18:37.087Z,45.90
2019-02-27T16:21:20.937Z,45.40
2019-02-27T16:23:56.241Z,45.50
2019-02-27T16:26:31.999Z,45.60
2019-02-27T16:29:13.337Z,45.80
2019-02-27T16:31:55.592Z,45.90
2019-02-27T16:34:33.248Z,45.80
2019-02-27T16:37:21.930Z,46.00
2019-02-27T16:39:55.250Z,45.80
2019-02-27T16:42:31.788Z,45.70
2019-02-27T16:45:15.243Z,45.70
2019-02-27T16:47:54.035Z,45.70
2019-02-27T16:50:32.151Z,45.80
2019-02-27T16:53:08.377Z,45.90
2019-02-27T16:55:56.785Z,45.60
2019-02-27T16:58:33.091Z,46.10
2019-02-27T17:01:16.059Z,46.30
2019-02-27T17:03:52.579Z,46.40
2019-02-27T17:06:28.703Z,46.70
2019-02-27T17:09:07.159Z,47.00
2019-02-27T17:11:48.992Z,47.10
2019-02-27T17:14:30.603Z,47.40
2019-02-27T17:17:06.536Z,47.20
2019-02-27T17:19:48.465Z,47.40
2019-02-27T17:22:17.708Z,47.40
2019-02-27T17:24:59.321Z,46.90
2019-02-27T17:27:28.525Z,46.60
2019-02-27T17:30:11.703Z,46.60
2019-02-27T17:32:53.648Z,46.70
2019-02-27T17:35:23.613Z,46.80
2019-02-27T17:37:59.630Z,46.40
2019-02-27T17:40:37.582Z,46.00
2019-02-27T17:43:12.974Z,45.90
2019-02-27T17:45:54.558Z,45.20
2019-02-27T17:48:36.968Z,45.20
2019-02-27T17:51:12.556Z,45.10
2019-02-27T17:53:57.907Z,44.60
2019-02-27T17:56:33.338Z,44.90
2019-02-27T17:59:16.130Z,44.80
2019-02-27T18:01:51.863Z,44.90
2019-02-27T18:04:33.593Z,44.90
2019-02-27T18:07:15.870Z,45.10
2019-02-27T18:09:52.130Z,45.00
2019-02-27T18:12:30.042Z,45.40
2019-02-27T18:15:11.482Z,45.80
2019-02-27T18:17:54.177Z,45.80
2019-02-27T18:20:32.084Z,46.00
2019-02-27T18:23:07.994Z,46.00
2019-02-27T18:25:41.048Z,45.70
2019-02-27T18:28:21.969Z,46.00
2019-02-27T18:30:58.189Z,46.20
2019-02-27T18:33:33.959Z,46.70
2019-02-27T18:36:09.324Z,47.30
2019-02-27T18:38:51.788Z,47.60
2019-02-27T18:41:28.091Z,48.10
2019-02-27T18:44:11.403Z,48.60
2019-02-27T18:46:47.220Z,49.00
2019-02-27T18:49:24.125Z,49.50
2019-02-27T18:52:07.412Z,49.90
2019-02-27T18:54:51.051Z,50.40
2019-02-27T18:57:27.374Z,50.50
2019-02-27T19:00:12.135Z,51.00
2019-02-27T19:02:54.641Z,51.30
2019-02-27T19:05:31.934Z,51.40
2019-02-27T19:08:11.943Z,51.60
2019-02-27T19:10:54.879Z,51.60
2019-02-27T19:13:32.354Z,51.70
2019-02-27T19:16:17.430Z,52.00
2019-02-27T19:18:53.372Z,52.80
2019-02-27T19:21:36.564Z,52.60
2019-02-27T19:24:13.493Z,52.70
2019-02-27T19:26:56.190Z,52.90
2019-02-27T19:29:39.318Z,53.00
2019-02-27T19:32:19.123Z,53.20
2019-02-27T19:35:01.717Z,53.00
2019-02-27T19:37:39.136Z,53.20
2019-02-27T19:40:30.462Z,53.20
2019-02-27T19:43:18.136Z,53.50
2019-02-27T19:46:01.663Z,53.80
2019-02-27T19:48:37.622Z,54.20
2019-02-27T19:51:21.008Z,54.60
2019-02-27T19:53:57.257Z,55.00
2019-02-27T19:56:40.944Z,55.40
2019-02-27T19:59:25.039Z,55.80
2019-02-27T20:02:08.485Z,56.30
2019-02-27T20:04:45.995Z,56.90
2019-02-27T20:07:22.167Z,57.30
2019-02-27T20:10:04.412Z,57.60
2019-02-27T20:12:40.088Z,58.10
2019-02-27T20:15:31.120Z,58.40
2019-02-27T20:18:00.909Z,58.70
2019-02-27T20:20:30.799Z,59.00
2019-02-27T20:23:07.105Z,59.30
2019-02-27T20:25:44.407Z,59.50
2019-02-27T20:28:29.019Z,59.80
2019-02-27T20:31:05.693Z,60.10
2019-02-27T20:33:47.758Z,60.30
2019-02-27T20:36:32.983Z,60.60
2019-02-27T20:39:14.528Z,60.80
2019-02-27T20:41:56.980Z,61.20
2019-02-27T20:44:34.077Z,61.40
2019-02-27T20:47:17.740Z,61.70
2019-02-27T20:49:47.992Z,61.80
2019-02-27T20:52:23.929Z,62.10
2019-02-27T20:54:53.370Z,62.40
2019-02-27T20:57:36.030Z,62.40
2019-02-27T21:00:22.704Z,62.60
2019-02-27T21:03:05.224Z,63.00
2019-02-27T21:05:42.006Z,63.10
2019-02-27T21:08:18.965Z,63.50
2019-02-27T21:10:56.368Z,63.60
2019-02-27T21:13:39.835Z,63.90
2019-02-27T21:16:16.119Z,64.10
2019-02-27T21:19:02.665Z,64.20
2019-02-27T21:21:36.970Z,64.60
2019-02-27T21:24:13.475Z,64.70
2019-02-27T21:26:49.901Z,65.00
2019-02-27T21:29:26.048Z,65.10
2019-02-27T21:32:08.398Z,65.30
2019-02-27T21:34:45.743Z,65.30
2019-02-27T21:37:21.981Z,65.80
2019-02-27T21:40:04.849Z,66.00
2019-02-27T21:42:40.391Z,66.10
2019-02-27T21:45:43.913Z,66.20
2019-02-27T21:48:27.863Z,66.50
2019-02-27T21:51:03.568Z,66.80
2019-02-27T21:53:45.748Z,67.00
2019-02-27T21:56:28.195Z,67.20
2019-02-27T21:59:04.768Z,67.30
2019-02-27T22:01:42.097Z,67.40
2019-02-27T22:04:24.658Z,67.50
2019-02-27T22:07:00.837Z,67.50
2019-02-27T22:09:44.643Z,67.70
2019-02-27T22:12:26.263Z,67.60
2019-02-27T22:15:08.227Z,67.60
2019-02-27T22:17:44.160Z,67.60
2019-02-27T22:20:27.702Z,67.70
2019-02-27T22:23:12.626Z,67.80
2019-02-27T22:25:46.171Z,67.90
2019-02-27T22:28:29.286Z,68.00
2019-02-27T22:31:06.683Z,68.00
2019-02-27T22:33:50.007Z,68.20
2019-02-27T22:36:25.981Z,68.30
2019-02-27T22:39:07.847Z,68.40
2019-02-27T22:41:50.069Z,68.40
2019-02-27T22:44:33.356Z,68.50
2019-02-27T22:47:15.396Z,68.40
2019-02-27T22:49:51.205Z,68.40
2019-02-27T22:52:46.733Z,68.50
2019-02-27T22:55:23.706Z,68.40
2019-02-27T22:58:05.372Z,68.50
2019-02-27T23:00:56.109Z,68.60
2019-02-27T23:03:45.087Z,68.50
2019-02-27T23:06:34.622Z,68.40
2019-02-27T23:09:20.103Z,68.40
2019-02-27T23:11:55.970Z,68.20
2019-02-27T23:14:58.344Z,68.10
2019-02-27T23:17:40.844Z,68.00
2019-02-27T23:20:20.707Z,67.80
2019-02-27T23:23:02.626Z,67.70
2019-02-27T23:25:38.959Z,67.40
2019-02-27T23:28:21.679Z,67.10
2019-02-27T23:30:57.509Z,67.00
2019-02-27T23:33:36.640Z,66.70
2019-02-27T23:36:11.645Z,66.70
2019-02-27T23:38:41.158Z,66.60
2019-02-27T23:41:24.139Z,66.40
2019-02-27T23:44:06.703Z,66.40
2019-02-27T23:46:51.538Z,66.30
2019-02-27T23:49:27.037Z,66.20
2019-02-27T23:52:03.462Z,66.20
2019-02-27T23:54:46.520Z,66.00
2019-02-27T23:57:28.234Z,66.00
